Time;durP1;ratioP1;P1;durP2;ratioP2;P2;SDS_P1;SDS_P2;PMS_P1;PMS_P2;Temp;Humidity;BMP_temperature;BMP_pressure;BME280_temperature;BME280_humidity;BME280_pressure;Samples;Min_cycle;Max_cycle;Signal;HPM_P1;HPM_P2
2022/11/11 00:02:16;;;;;;;0.00;0.00;;;;;;;;;;5093552;28;20229;-76
2022/11/11 00:04:45;;;;;;;0.00;0.00;;;;;;;;;;5092573;28;20209;-76
2022/11/11 00:07:13;;;;;;;0.00;0.00;;;;;;;;;;5093228;28;20237;-77
2022/11/11 00:09:42;;;;;;;0.00;0.00;;;;;;;;;;5092604;28;20237;-76
2022/11/11 00:12:10;;;;;;;0.00;0.00;;;;;;;;;;5093438;28;20267;-75
2022/11/11 00:14:39;;;;;;;0.00;0.00;;;;;;;;;;5093586;28;20241;-76
2022/11/11 00:25:32;;;;;;;0.00;0.00;;;;;;;;;;5080769;28;20198;-76
2022/11/11 00:28:00;;;;;;;0.00;0.00;;;;;;;;;;5072838;28;20211;-75
2022/11/11 00:30:29;;;;;;;0.00;0.00;;;;;;;;;;5073513;28;20245;-76
2022/11/11 00:32:58;;;;;;;0.00;0.00;;;;;;;;;;5073717;28;20257;-76
2022/11/11 00:41:01;;;;;;;0.00;0.00;;;;;;;;;;5090341;28;20320;-75
2022/11/11 00:43:30;;;;;;;0.00;0.00;;;;;;;;;;5092642;28;20285;-75
2022/11/11 00:51:28;;;;;;;0.00;0.00;;;;;;;;;;5083874;28;20745;-75
2022/11/11 00:53:56;;;;;;;0.00;0.00;;;;;;;;;;5092108;28;20208;-75
2022/11/11 00:56:25;;;;;;;0.00;0.00;;;;;;;;;;5093637;28;20206;-76
2022/11/11 00:58:54;;;;;;;0.00;0.00;;;;;;;;;;5092549;28;20226;-75
2022/11/11 01:01:22;;;;;;;0.00;0.00;;;;;;;;;;5092585;28;20250;-76
2022/11/11 01:03:52;;;;;;;0.00;0.00;;;;;;;;;;5077289;28;20202;-76
2022/11/11 01:06:20;;;;;;;0.00;0.00;;;;;;;;;;5072039;28;20203;-76
2022/11/11 01:08:49;;;;;;;0.00;0.00;;;;;;;;;;5079025;28;20198;-76
2022/11/11 01:11:19;;;;;;;0.00;0.00;;;;;;;;;;5092538;28;20224;-76
2022/11/11 01:13:48;;;;;;;0.00;0.00;;;;;;;;;;5092637;28;20209;-76
2022/11/11 01:16:17;;;;;;;0.00;0.00;;;;;;;;;;5091892;28;20263;-76
2022/11/11 01:18:45;;;;;;;0.00;0.00;;;;;;;;;;5091160;28;20278;-75
2022/11/11 01:21:16;;;;;;;0.00;0.00;;;;;;;;;;5072555;28;20245;-76
2022/11/11 01:23:47;;;;;;;0.00;0.00;;;;;;;;;;5076008;28;20204;-76
2022/11/11 01:26:17;;;;;;;0.00;0.00;;;;;;;;;;5092499;28;20292;-76
2022/11/11 01:28:46;;;;;;;0.00;0.00;;;;;;;;;;5092563;28;20293;-76
2022/11/11 01:31:17;;;;;;;0.00;0.00;;;;;;;;;;5092109;28;20293;-76
2022/11/11 01:33:46;;;;;;;0.00;0.00;;;;;;;;;;5084736;28;20233;-76
2022/11/11 01:36:17;;;;;;;0.00;0.00;;;;;;;;;;5073663;28;20613;-76
2022/11/11 01:38:49;;;;;;;0.00;0.00;;;;;;;;;;5073573;28;20653;-76
2022/11/11 01:41:35;;;;;;;0.00;0.00;;;;;;;;;;5074036;28;20206;-76
2022/11/11 01:44:08;;;;;;;0.00;0.00;;;;;;;;;;5073945;28;20567;-76
2022/11/11 01:46:38;;;;;;;0.00;0.00;;;;;;;;;;5073853;28;20209;-76
2022/11/11 01:49:20;;;;;;;0.00;0.00;;;;;;;;;;5073497;28;20290;-76
2022/11/11 01:51:54;;;;;;;0.00;0.00;;;;;;;;;;5071361;28;20280;-76
2022/11/11 01:54:26;;;;;;;0.00;0.00;;;;;;;;;;5083038;28;20206;-76
2022/11/11 01:56:58;;;;;;;0.00;0.00;;;;;;;;;;5093781;28;20193;-76
2022/11/11 01:59:27;;;;;;;0.00;0.00;;;;;;;;;;5093653;28;20202;-76
2022/11/11 02:01:56;;;;;;;0.00;0.00;;;;;;;;;;5092590;28;20257;-76
2022/11/11 02:07:13;;;;;;;0.00;0.00;;;;;;;;;;5073192;28;20202;-76
2022/11/11 02:09:45;;;;;;;0.00;0.00;;;;;;;;;;5073449;28;20285;-76
2022/11/11 02:15:01;;;;;;;0.00;0.00;;;;;;;;;;5073560;28;20648;-76
2022/11/11 02:17:31;;;;;;;0.00;0.00;;;;;;;;;;5073892;28;20210;-76
2022/11/11 02:20:01;;;;;;;0.00;0.00;;;;;;;;;;5077332;28;20218;-76
2022/11/11 02:22:35;;;;;;;0.00;0.00;;;;;;;;;;5073164;28;20254;-75
2022/11/11 02:25:07;;;;;;;0.00;0.00;;;;;;;;;;5088463;28;20244;-76
2022/11/11 02:27:37;;;;;;;0.00;0.00;;;;;;;;;;5093756;28;20236;-76
2022/11/11 02:30:14;;;;;;;0.00;0.00;;;;;;;;;;5093854;28;20212;-76
2022/11/11 02:32:44;;;;;;;0.00;0.00;;;;;;;;;;5093481;28;20585;-76
2022/11/11 02:35:14;;;;;;;0.00;0.00;;;;;;;;;;5071581;28;20207;-76
2022/11/11 02:37:44;;;;;;;0.00;0.00;;;;;;;;;;5073262;28;20229;-76
2022/11/11 02:40:15;;;;;;;0.00;0.00;;;;;;;;;;5073428;28;20233;-76
2022/11/11 02:42:43;;;;;;;0.00;0.00;;;;;;;;;;5073790;28;20262;-75
2022/11/11 02:45:12;;;;;;;0.00;0.00;;;;;;;;;;5076421;28;20206;-75
2022/11/11 02:47:41;;;;;;;0.00;0.00;;;;;;;;;;5076000;28;20219;-75
2022/11/11 02:50:09;;;;;;;0.00;0.00;;;;;;;;;;5076928;28;20206;-75
2022/11/11 02:52:38;;;;;;;0.00;0.00;;;;;;;;;;5076756;28;20222;-75
2022/11/11 02:55:07;;;;;;;0.00;0.00;;;;;;;;;;5092356;28;20655;-76
2022/11/11 02:57:38;;;;;;;0.00;0.00;;;;;;;;;;5085037;28;20275;-75
2022/11/11 03:00:07;;;;;;;0.00;0.00;;;;;;;;;;5076873;28;20264;-75
2022/11/11 03:02:35;;;;;;;0.00;0.00;;;;;;;;;;5085452;28;20225;-75
2022/11/11 03:05:04;;;;;;;0.00;0.00;;;;;;;;;;5096710;28;20686;-75
2022/11/11 03:07:33;;;;;;;0.00;0.00;;;;;;;;;;5076185;28;20678;-76
2022/11/11 03:10:02;;;;;;;0.00;0.00;;;;;;;;;;5076329;28;20206;-75
2022/11/11 03:12:30;;;;;;;0.00;0.00;;;;;;;;;;5076376;28;20218;-76
2022/11/11 03:15:00;;;;;;;0.00;0.00;;;;;;;;;;5076678;28;20293;-75
2022/11/11 03:17:40;;;;;;;0.00;0.00;;;;;;;;;;5076316;28;20655;-76
2022/11/11 03:23:03;;;;;;;0.00;0.00;;;;;;;;;;5076254;28;20642;-75
2022/11/11 03:25:38;;;;;;;0.00;0.00;;;;;;;;;;5091198;28;20237;-75
2022/11/11 03:28:07;;;;;;;0.00;0.00;;;;;;;;;;5075837;28;20190;-76
2022/11/11 03:30:37;;;;;;;0.00;0.00;;;;;;;;;;5076320;28;20675;-76
2022/11/11 03:33:06;;;;;;;0.00;0.00;;;;;;;;;;5076756;28;20275;-76
2022/11/11 03:35:35;;;;;;;0.00;0.00;;;;;;;;;;5094524;28;20694;-75
2022/11/11 03:38:15;;;;;;;0.00;0.00;;;;;;;;;;5076134;28;20230;-75
2022/11/11 03:40:44;;;;;;;0.00;0.00;;;;;;;;;;5075632;28;20302;-75
2022/11/11 03:43:13;;;;;;;0.00;0.00;;;;;;;;;;5075498;28;20226;-75
2022/11/11 03:45:43;;;;;;;0.00;0.00;;;;;;;;;;5075273;28;20251;-75
2022/11/11 03:48:11;;;;;;;0.00;0.00;;;;;;;;;;5075049;28;20206;-75
2022/11/11 03:50:40;;;;;;;0.00;0.00;;;;;;;;;;5075773;28;20281;-75
2022/11/11 03:53:09;;;;;;;0.00;0.00;;;;;;;;;;5075709;28;20238;-75
2022/11/11 03:55:37;;;;;;;0.00;0.00;;;;;;;;;;5074252;28;20675;-75
2022/11/11 03:58:06;;;;;;;0.00;0.00;;;;;;;;;;5075115;28;20245;-75
2022/11/11 04:00:35;;;;;;;0.00;0.00;;;;;;;;;;5075376;28;20695;-75
2022/11/11 04:11:31;;;;;;;0.00;0.00;;;;;;;;;;5074744;28;20269;-75
2022/11/11 04:16:48;;;;;;;0.00;0.00;;;;;;;;;;5088387;28;20300;-76
2022/11/11 04:22:04;;;;;;;0.00;0.00;;;;;;;;;;5074843;28;20222;-75
2022/11/11 04:27:19;;;;;;;0.00;0.00;;;;;;;;;;5095853;28;20301;-75
2022/11/11 04:29:47;;;;;;;0.00;0.00;;;;;;;;;;5088808;28;20245;-76
2022/11/11 04:35:06;;;;;;;0.00;0.00;;;;;;;;;;5074741;28;20248;-75
2022/11/11 04:37:35;;;;;;;0.00;0.00;;;;;;;;;;5074983;28;20209;-75
2022/11/11 04:42:49;;;;;;;0.00;0.00;;;;;;;;;;5074788;28;20253;-75
2022/11/11 04:45:34;;;;;;;0.00;0.00;;;;;;;;;;5074264;28;20241;-75
2022/11/11 04:48:04;;;;;;;4.50;2.27;;;;;;;;;;5080410;28;20277;-75
2022/11/11 04:50:35;;;;;;;4.57;2.40;;;;;;;;;;5095097;28;20304;-75
2022/11/11 04:53:04;;;;;;;3.10;1.43;;;;;;;;;;5094755;28;20225;-75
2022/11/11 04:58:19;;;;;;;6.73;2.80;;;;;;;;;;5086451;28;20214;-75
2022/11/11 05:00:48;;;;;;;4.90;2.70;;;;;;;;;;5074004;28;20230;-75
2022/11/11 05:03:16;;;;;;;4.83;3.13;;;;;;;;;;5086551;28;20279;-75
2022/11/11 05:11:19;;;;;;;4.93;2.93;;;;;;;;;;5074080;28;20255;-74
2022/11/11 05:22:10;;;;;;;0.00;0.00;;;;;;;;;;5073818;28;20735;-75
2022/11/11 05:27:26;;;;;;;0.00;0.00;;;;;;;;;;5094017;28;20297;-75
2022/11/11 05:29:54;;;;;;;0.00;0.00;;;;;;;;;;5093980;28;20620;-75
2022/11/11 05:32:23;;;;;;;0.00;0.00;;;;;;;;;;5093998;28;20301;-75
2022/11/11 05:34:52;;;;;;;0.00;0.00;;;;;;;;;;5079846;28;20204;-76
2022/11/11 05:37:22;;;;;;;0.00;0.00;;;;;;;;;;5074146;28;20205;-75
2022/11/11 05:39:51;;;;;;;0.00;0.00;;;;;;;;;;5074253;28;20205;-75
2022/11/11 05:42:19;;;;;;;0.00;0.00;;;;;;;;;;5073606;28;20612;-75
2022/11/11 05:44:48;;;;;;;0.00;0.00;;;;;;;;;;5074198;28;20248;-75
2022/11/11 05:47:16;;;;;;;0.00;0.00;;;;;;;;;;5073808;28;20217;-75
2022/11/11 05:49:45;;;;;;;0.00;0.00;;;;;;;;;;5093559;28;20210;-75
2022/11/11 05:52:15;;;;;;;0.00;0.00;;;;;;;;;;5093672;28;20256;-75
2022/11/11 05:54:45;;;;;;;0.00;0.00;;;;;;;;;;5081855;28;20559;-75
2022/11/11 05:57:13;;;;;;;0.00;0.00;;;;;;;;;;5080474;28;20235;-75
2022/11/11 05:59:42;;;;;;;0.00;0.00;;;;;;;;;;5089853;28;20241;-75
2022/11/11 06:02:11;;;;;;;0.00;0.00;;;;;;;;;;5073427;28;20284;-74
2022/11/11 06:04:40;;;;;;;0.00;0.00;;;;;;;;;;5073367;28;20292;-75
2022/11/11 06:07:08;;;;;;;0.00;0.00;;;;;;;;;;5081012;28;20661;-75
2022/11/11 06:09:37;;;;;;;0.00;0.00;;;;;;;;;;5073142;28;20210;-74
2022/11/11 06:12:07;;;;;;;0.00;0.00;;;;;;;;;;5073650;28;20630;-74
2022/11/11 06:14:35;;;;;;;0.00;0.00;;;;;;;;;;5081329;28;20214;-75
2022/11/11 06:17:04;;;;;;;0.00;0.00;;;;;;;;;;5093453;28;20240;-75
2022/11/11 06:19:32;;;;;;;0.00;0.00;;;;;;;;;;5096727;28;20236;-75
2022/11/11 06:22:03;;;;;;;0.00;0.00;;;;;;;;;;5086711;28;20263;-75
2022/11/11 06:24:31;;;;;;;0.00;0.00;;;;;;;;;;5085736;28;20215;-74
2022/11/11 06:26:59;;;;;;;0.00;0.00;;;;;;;;;;5077183;28;20733;-74
2022/11/11 06:29:29;;;;;;;0.00;0.00;;;;;;;;;;5077325;28;20242;-75
2022/11/11 06:31:57;;;;;;;0.00;0.00;;;;;;;;;;5077207;28;20221;-75
2022/11/11 06:34:26;;;;;;;0.00;0.00;;;;;;;;;;5076329;28;20633;-74
2022/11/11 06:36:54;;;;;;;0.00;0.00;;;;;;;;;;5076270;28;20202;-74
2022/11/11 06:39:23;;;;;;;0.00;0.00;;;;;;;;;;5076698;28;20214;-74
2022/11/11 06:41:51;;;;;;;0.00;0.00;;;;;;;;;;5076762;28;20638;-74
2022/11/11 06:44:20;;;;;;;0.00;0.00;;;;;;;;;;5075157;28;20241;-75
2022/11/11 06:46:49;;;;;;;0.00;0.00;;;;;;;;;;5076379;28;20252;-74
2022/11/11 06:49:18;;;;;;;0.00;0.00;;;;;;;;;;5075844;28;20230;-74
2022/11/11 06:51:46;;;;;;;0.00;0.00;;;;;;;;;;5076252;28;20261;-75
2022/11/11 06:54:15;;;;;;;0.00;0.00;;;;;;;;;;5084501;28;20288;-74
2022/11/11 06:56:43;;;;;;;0.00;0.00;;;;;;;;;;5096411;28;20251;-75
2022/11/11 06:59:12;;;;;;;0.00;0.00;;;;;;;;;;5097073;28;20610;-74
2022/11/11 07:01:40;;;;;;;0.00;0.00;;;;;;;;;;5096495;28;20316;-74
2022/11/11 07:04:10;;;;;;;0.00;0.00;;;;;;;;;;5083592;28;20257;-74
2022/11/11 07:06:39;;;;;;;0.00;0.00;;;;;;;;;;5076702;28;20234;-75
2022/11/11 07:09:07;;;;;;;0.00;0.00;;;;;;;;;;5076107;28;20297;-74
2022/11/11 07:11:36;;;;;;;0.00;0.00;;;;;;;;;;5076057;28;20218;-74
2022/11/11 07:14:04;;;;;;;0.00;0.00;;;;;;;;;;5076633;28;20244;-74
2022/11/11 07:16:32;;;;;;;0.00;0.00;;;;;;;;;;5075690;28;20210;-74
2022/11/11 07:19:01;;;;;;;0.00;0.00;;;;;;;;;;5085702;28;20237;-74
2022/11/11 07:21:31;;;;;;;0.00;0.00;;;;;;;;;;5096362;28;20304;-74
2022/11/11 07:23:59;;;;;;;0.00;0.00;;;;;;;;;;5091464;28;20198;-74
2022/11/11 07:26:28;;;;;;;0.00;0.00;;;;;;;;;;5095785;28;20206;-75
2022/11/11 07:28:56;;;;;;;0.00;0.00;;;;;;;;;;5095727;28;20198;-75
2022/11/11 07:31:25;;;;;;;0.00;0.00;;;;;;;;;;5095515;28;20309;-75
2022/11/11 07:33:53;;;;;;;0.00;0.00;;;;;;;;;;5087095;28;20719;-74
2022/11/11 07:36:22;;;;;;;0.00;0.00;;;;;;;;;;5076000;28;20733;-75
2022/11/11 07:38:51;;;;;;;0.00;0.00;;;;;;;;;;5076082;28;20234;-74
2022/11/11 07:41:20;;;;;;;0.00;0.00;;;;;;;;;;5075458;28;20203;-74
2022/11/11 07:43:48;;;;;;;0.00;0.00;;;;;;;;;;5090257;28;20241;-74
2022/11/11 07:46:17;;;;;;;0.00;0.00;;;;;;;;;;5078757;28;20194;-74
2022/11/11 07:48:45;;;;;;;0.00;0.00;;;;;;;;;;5088695;28;20229;-74
2022/11/11 07:51:14;;;;;;;0.00;0.00;;;;;;;;;;5076252;28;20682;-74
2022/11/11 07:53:42;;;;;;;0.00;0.00;;;;;;;;;;5081826;28;20201;-74
2022/11/11 07:56:12;;;;;;;0.00;0.00;;;;;;;;;;5095767;28;20611;-75
2022/11/11 07:58:40;;;;;;;0.00;0.00;;;;;;;;;;5096091;28;20241;-75
2022/11/11 08:01:09;;;;;;;0.00;0.00;;;;;;;;;;5095615;28;20244;-74
2022/11/11 08:03:48;;;;;;;0.00;0.00;;;;;;;;;;5083912;28;20217;-75
2022/11/11 08:06:17;;;;;;;2.20;1.13;;;;;;;;;;5087022;28;20197;-75
2022/11/11 08:08:46;;;;;;;5.80;2.23;;;;;;;;;;5078799;28;20233;-75
2022/11/11 08:11:16;;;;;;;3.87;1.97;;;;;;;;;;5081398;28;20233;-75
2022/11/11 08:13:43;;;;;;;3.03;2.07;;;;;;;;;;5094166;28;20707;-75
2022/11/11 08:16:12;;;;;;;4.20;2.07;;;;;;;;;;5094538;28;20240;-75
2022/11/11 08:18:41;;;;;;;2.87;2.17;;;;;;;;;;5094729;28;20202;-75
2022/11/11 08:21:10;;;;;;;3.80;2.23;;;;;;;;;;5095509;28;20783;-75
2022/11/11 08:23:38;;;;;;;3.63;2.00;;;;;;;;;;5089821;28;20226;-74
2022/11/11 08:26:28;;;;;;;4.20;1.93;;;;;;;;;;5094475;28;20278;-74
2022/11/11 08:28:58;;;;;;;3.80;2.07;;;;;;;;;;5092328;28;20190;-75
2022/11/11 08:31:26;;;;;;;3.10;2.07;;;;;;;;;;5074788;28;20218;-74
2022/11/11 08:33:55;;;;;;;4.20;1.80;;;;;;;;;;5075065;28;20381;-75
2022/11/11 08:36:25;;;;;;;3.90;2.20;;;;;;;;;;5074531;28;20646;-74
2022/11/11 08:38:53;;;;;;;5.13;2.10;;;;;;;;;;5074613;28;20222;-75
2022/11/11 08:41:22;;;;;;;4.00;2.20;;;;;;;;;;5074604;28;20760;-75
2022/11/11 08:43:55;;;;;;;3.20;2.00;;;;;;;;;;5080689;28;20224;-75
2022/11/11 08:46:24;;;;;;;3.40;1.80;;;;;;;;;;5073722;28;20230;-75
2022/11/11 08:48:53;;;;;;;3.10;1.80;;;;;;;;;;5074618;28;20214;-74
2022/11/11 08:51:22;;;;;;;4.27;2.20;;;;;;;;;;5074479;28;20226;-75
2022/11/11 08:53:50;;;;;;;4.20;2.03;;;;;;;;;;5080243;28;20225;-75
2022/11/11 08:56:19;;;;;;;3.00;1.80;;;;;;;;;;5094510;28;20721;-75
2022/11/11 08:58:47;;;;;;;3.03;2.30;;;;;;;;;;5094659;28;20293;-75
2022/11/11 09:01:17;;;;;;;2.37;1.73;;;;;;;;;;5082543;28;20210;-74
2022/11/11 09:03:46;;;;;;;4.67;1.80;;;;;;;;;;5073634;28;20214;-74
2022/11/11 09:06:15;;;;;;;4.80;1.80;;;;;;;;;;5073802;28;20273;-74
2022/11/11 09:08:44;;;;;;;3.77;1.93;;;;;;;;;;5073645;28;20211;-75
2022/11/11 09:11:12;;;;;;;2.30;2.00;;;;;;;;;;5073552;28;20237;-74
2022/11/11 09:13:41;;;;;;;4.20;2.13;;;;;;;;;;5074616;28;20199;-75
2022/11/11 09:16:10;;;;;;;2.03;1.70;;;;;;;;;;5073876;28;20252;-74
2022/11/11 09:18:40;;;;;;;4.17;1.80;;;;;;;;;;5073862;28;20202;-75
2022/11/11 09:21:09;;;;;;;3.87;1.60;;;;;;;;;;5073998;28;20186;-75
2022/11/11 09:23:38;;;;;;;2.93;1.90;;;;;;;;;;5074171;28;20316;-74
2022/11/11 09:26:06;;;;;;;3.30;1.80;;;;;;;;;;5074002;28;20248;-75
2022/11/11 09:28:35;;;;;;;3.77;1.90;;;;;;;;;;5074008;28;20247;-75
2022/11/11 09:31:04;;;;;;;5.50;1.83;;;;;;;;;;5086456;28;20259;-75
2022/11/11 09:33:54;;;;;;;3.40;1.80;;;;;;;;;;5078566;28;20201;-77
2022/11/11 09:36:22;;;;;;;2.73;1.73;;;;;;;;;;5072881;28;20202;-75
2022/11/11 09:38:51;;;;;;;2.77;1.70;;;;;;;;;;5091750;28;20206;-75
2022/11/11 09:41:21;;;;;;;3.87;1.93;;;;;;;;;;5082566;28;20260;-74
2022/11/11 09:43:54;;;;;;;3.20;1.77;;;;;;;;;;5073541;28;20218;-74
2022/11/11 09:46:34;;;;;;;3.60;1.70;;;;;;;;;;5073087;28;20179;-74
2022/11/11 09:49:22;;;;;;;2.80;1.40;;;;;;;;;;5073742;28;20198;-74
2022/11/11 09:51:54;;;;;;;4.27;1.60;;;;;;;;;;5073347;28;20262;-73
2022/11/11 09:54:31;;;;;;;3.73;1.60;;;;;;;;;;5083841;28;20285;-74
2022/11/11 09:57:01;;;;;;;3.97;1.80;;;;;;;;;;5084765;28;20253;-74
2022/11/11 09:59:31;;;;;;;3.27;1.70;;;;;;;;;;5091384;28;20233;-74
2022/11/11 10:02:00;;;;;;;3.60;1.63;;;;;;;;;;5090036;28;20263;-74
2022/11/11 10:04:31;;;;;;;3.67;1.80;;;;;;;;;;5092557;28;20217;-74
2022/11/11 10:07:04;;;;;;;3.37;1.50;;;;;;;;;;5090390;28;20187;-74
2022/11/11 10:09:37;;;;;;;3.23;1.60;;;;;;;;;;5079693;28;20234;-74
2022/11/11 10:12:09;;;;;;;5.00;1.50;;;;;;;;;;5073012;28;20222;-73
2022/11/11 10:14:39;;;;;;;3.40;1.60;;;;;;;;;;5072597;28;20218;-74
2022/11/11 10:17:12;;;;;;;2.53;1.60;;;;;;;;;;5072875;28;20207;-74
2022/11/11 10:19:47;;;;;;;1.83;1.30;;;;;;;;;;5072390;28;20211;-74
2022/11/11 10:22:20;;;;;;;3.27;1.57;;;;;;;;;;5071718;28;20275;-74
2022/11/11 10:24:52;;;;;;;1.50;1.30;;;;;;;;;;5075794;28;20283;-74
2022/11/11 10:27:23;;;;;;;2.20;1.37;;;;;;;;;;5073360;28;20277;-74
2022/11/11 10:29:51;;;;;;;4.97;1.50;;;;;;;;;;5073519;28;20628;-77
2022/11/11 10:32:21;;;;;;;2.97;1.63;;;;;;;;;;5073041;28;20258;-75
2022/11/11 10:34:51;;;;;;;4.80;1.57;;;;;;;;;;5072822;28;20230;-76
2022/11/11 10:37:22;;;;;;;3.03;1.67;;;;;;;;;;5072722;28;20198;-75
2022/11/11 10:39:59;;;;;;;3.10;1.50;;;;;;;;;;5072821;28;20228;-75
2022/11/11 10:42:28;;;;;;;2.83;1.30;;;;;;;;;;5073670;28;20218;-75
2022/11/11 10:44:59;;;;;;;2.30;1.40;;;;;;;;;;5072148;28;20254;-75
2022/11/11 10:47:40;;;;;;;3.30;1.70;;;;;;;;;;5073459;28;20208;-74
2022/11/11 10:50:13;;;;;;;3.43;1.40;;;;;;;;;;5072588;28;20229;-74
2022/11/11 10:52:42;;;;;;;3.23;1.43;;;;;;;;;;5072770;28;20258;-75
2022/11/11 10:55:14;;;;;;;3.80;1.70;;;;;;;;;;5081710;28;20209;-75
2022/11/11 10:57:47;;;;;;;1.83;1.50;;;;;;;;;;5092927;28;20234;-74
2022/11/11 11:00:16;;;;;;;2.57;1.47;;;;;;;;;;5093191;28;20301;-75
2022/11/11 11:02:46;;;;;;;4.13;1.50;;;;;;;;;;5092476;28;20659;-75
2022/11/11 11:05:20;;;;;;;2.00;1.43;;;;;;;;;;5093087;28;20256;-75
2022/11/11 11:07:51;;;;;;;1.87;1.40;;;;;;;;;;5097126;28;20235;-74
2022/11/11 11:10:22;;;;;;;2.20;1.30;;;;;;;;;;5095407;28;20639;-75
2022/11/11 11:12:53;;;;;;;2.10;1.30;;;;;;;;;;5097281;28;20751;-75
2022/11/11 11:15:23;;;;;;;5.83;1.50;;;;;;;;;;5080878;28;20245;-75
2022/11/11 11:17:54;;;;;;;2.27;1.33;;;;;;;;;;5083546;28;20270;-75
2022/11/11 11:20:24;;;;;;;2.77;1.43;;;;;;;;;;5096631;28;20221;-75
2022/11/11 11:22:54;;;;;;;2.90;1.30;;;;;;;;;;5077728;28;20266;-74
2022/11/11 11:25:24;;;;;;;2.97;1.40;;;;;;;;;;5096168;28;20222;-75
2022/11/11 11:27:53;;;;;;;3.57;1.60;;;;;;;;;;5095915;28;20292;-74
2022/11/11 11:30:23;;;;;;;3.07;1.40;;;;;;;;;;5095942;28;20201;-75
2022/11/11 11:32:56;;;;;;;1.80;1.30;;;;;;;;;;5095670;28;20253;-75
2022/11/11 11:35:37;;;;;;;2.77;1.27;;;;;;;;;;5096773;28;20573;-75
2022/11/11 11:38:06;;;;;;;5.37;1.70;;;;;;;;;;5093167;28;20198;-75
2022/11/11 11:40:51;;;;;;;4.17;1.47;;;;;;;;;;5075419;28;20253;-75
2022/11/11 11:43:26;;;;;;;2.23;1.10;;;;;;;;;;5076062;28;20215;-74
2022/11/11 11:45:56;;;;;;;5.03;1.70;;;;;;;;;;5076060;28;20226;-77
2022/11/11 11:48:33;;;;;;;1.80;1.30;;;;;;;;;;5078741;28;20206;-77
2022/11/11 11:51:10;;;;;;;2.67;1.47;;;;;;;;;;5077709;28;20297;-74
2022/11/11 11:53:43;;;;;;;2.53;1.27;;;;;;;;;;5093701;28;20190;-75
2022/11/11 11:56:16;;;;;;;4.00;1.60;;;;;;;;;;5095750;28;20237;-74
2022/11/11 11:58:53;;;;;;;2.80;1.43;;;;;;;;;;5095409;28;20667;-74
2022/11/11 12:01:25;;;;;;;1.77;1.23;;;;;;;;;;5095338;28;20225;-74
2022/11/11 12:04:03;;;;;;;3.83;1.40;;;;;;;;;;5090459;28;20234;-75
2022/11/11 12:06:40;;;;;;;2.33;1.30;;;;;;;;;;5076499;28;20281;-75
2022/11/11 12:09:14;;;;;;;3.57;1.30;;;;;;;;;;5075148;28;20643;-75
2022/11/11 12:11:49;;;;;;;2.17;1.50;;;;;;;;;;5079527;28;20217;-74
2022/11/11 12:14:27;;;;;;;2.57;1.17;;;;;;;;;;5093146;28;20248;-75
2022/11/11 12:17:00;;;;;;;2.23;1.23;;;;;;;;;;5083599;28;20599;-75
2022/11/11 12:19:37;;;;;;;2.87;1.37;;;;;;;;;;5093095;28;20201;-75
2022/11/11 12:22:19;;;;;;;3.33;1.37;;;;;;;;;;5083557;28;20582;-75
2022/11/11 12:24:51;;;;;;;1.90;1.17;;;;;;;;;;5074194;28;20254;-75
2022/11/11 12:27:24;;;;;;;2.43;1.00;;;;;;;;;;5074987;28;20241;-75
2022/11/11 12:29:59;;;;;;;2.80;1.43;;;;;;;;;;5086339;28;20240;-75
2022/11/11 12:32:33;;;;;;;3.10;1.40;;;;;;;;;;5088903;28;20256;-75
2022/11/11 12:35:16;;;;;;;2.40;1.30;;;;;;;;;;5084374;28;20229;-75
2022/11/11 12:37:50;;;;;;;2.93;1.40;;;;;;;;;;5086048;28;20218;-75
2022/11/11 12:40:22;;;;;;;3.47;1.30;;;;;;;;;;5074777;28;20282;-75
2022/11/11 12:42:58;;;;;;;3.13;1.23;;;;;;;;;;5082637;28;20214;-75
2022/11/11 12:45:31;;;;;;;2.90;1.40;;;;;;;;;;5074026;28;20252;-75
2022/11/11 12:48:04;;;;;;;2.83;1.17;;;;;;;;;;5074142;28;20248;-75
2022/11/11 12:50:36;;;;;;;2.20;1.00;;;;;;;;;;5074476;28;20230;-75
2022/11/11 12:53:12;;;;;;;2.30;1.20;;;;;;;;;;5073667;28;20230;-76
2022/11/11 12:55:44;;;;;;;2.55;1.20;;;;;;;;;;5086508;28;20213;-75
2022/11/11 12:58:19;;;;;;;3.45;1.15;;;;;;;;;;5094087;28;20242;-75
2022/11/11 13:00:55;;;;;;;2.50;1.30;;;;;;;;;;5094311;28;20185;-74
2022/11/11 13:03:37;;;;;;;1.63;1.27;;;;;;;;;;5094598;28;20249;-75
2022/11/11 13:06:10;;;;;;;1.40;1.05;;;;;;;;;;5091133;28;20222;-75
2022/11/11 13:09:05;;;;;;;3.45;1.35;;;;;;;;;;5092543;28;20229;-75
2022/11/11 13:11:42;;;;;;;4.32;1.45;;;;;;;;;;5059053;28;20225;-74
2022/11/11 13:14:23;;;;;;;2.17;1.20;;;;;;;;;;5088504;28;20670;-75
2022/11/11 13:16:52;;;;;;;2.43;1.40;;;;;;;;;;5080654;28;20226;-75
2022/11/11 13:19:25;;;;;;;3.33;1.50;;;;;;;;;;5083322;28;20259;-75
2022/11/11 13:21:54;;;;;;;3.27;1.27;;;;;;;;;;5081843;28;20254;-75
2022/11/11 13:24:24;;;;;;;2.57;1.40;;;;;;;;;;5088500;28;20293;-75
2022/11/11 13:26:56;;;;;;;7.03;1.70;;;;;;;;;;5085469;28;20739;-76
2022/11/11 13:29:43;;;;;;;2.60;1.50;;;;;;;;;;5073449;28;20273;-75
2022/11/11 13:32:14;;;;;;;1.90;1.40;;;;;;;;;;5074806;28;20218;-74
2022/11/11 13:34:43;;;;;;;2.73;1.50;;;;;;;;;;5077531;28;20209;-74
2022/11/11 13:37:20;;;;;;;2.63;1.40;;;;;;;;;;5076162;28;20209;-75
2022/11/11 13:39:50;;;;;;;2.97;1.50;;;;;;;;;;5075445;28;20656;-76
2022/11/11 13:42:28;;;;;;;4.10;1.70;;;;;;;;;;5077166;28;20249;-75
2022/11/11 13:44:59;;;;;;;3.57;1.60;;;;;;;;;;5084916;28;20225;-75
2022/11/11 13:47:30;;;;;;;2.13;1.40;;;;;;;;;;5093335;28;20220;-75
2022/11/11 13:50:01;;;;;;;4.83;1.70;;;;;;;;;;5093324;28;20662;-76
2022/11/11 13:52:32;;;;;;;4.57;1.77;;;;;;;;;;5078917;28;20230;-75
2022/11/11 13:55:02;;;;;;;3.13;1.67;;;;;;;;;;5074213;28;20598;-74
2022/11/11 13:57:34;;;;;;;2.83;1.50;;;;;;;;;;5076963;28;20197;-75
2022/11/11 14:00:05;;;;;;;3.07;1.40;;;;;;;;;;5073021;28;20187;-74
2022/11/11 14:02:35;;;;;;;3.53;1.37;;;;;;;;;;5073440;28;20222;-74
2022/11/11 14:05:17;;;;;;;2.50;1.53;;;;;;;;;;5073846;28;20206;-75
2022/11/11 14:07:49;;;;;;;4.23;1.40;;;;;;;;;;5073016;28;20198;-75
2022/11/11 14:10:36;;;;;;;5.10;1.30;;;;;;;;;;5071903;28;20282;-75
2022/11/11 14:13:19;;;;;;;1.47;1.20;;;;;;;;;;5072221;28;20312;-75
2022/11/11 14:15:51;;;;;;;4.43;1.70;;;;;;;;;;5080484;28;20701;-76
2022/11/11 14:18:40;;;;;;;4.07;1.70;;;;;;;;;;5074633;28;20202;-75
2022/11/11 14:21:09;;;;;;;6.10;2.07;;;;;;;;;;5071259;28;20206;-75
2022/11/11 14:23:39;;;;;;;3.90;1.30;;;;;;;;;;5072128;28;20206;-75
2022/11/11 14:26:24;;;;;;;3.60;1.30;;;;;;;;;;5072331;28;20225;-75
2022/11/11 14:28:54;;;;;;;3.70;1.60;;;;;;;;;;5089265;28;20241;-75
2022/11/11 14:31:33;;;;;;;2.07;1.43;;;;;;;;;;5079820;28;20329;-75
2022/11/11 14:34:06;;;;;;;2.73;1.37;;;;;;;;;;5079763;28;20210;-75
2022/11/11 14:36:40;;;;;;;2.80;1.33;;;;;;;;;;5084234;28;20678;-75
2022/11/11 14:39:14;;;;;;;3.73;1.23;;;;;;;;;;5069166;28;20245;-74
2022/11/11 14:41:46;;;;;;;1.77;1.03;;;;;;;;;;5081382;28;20227;-75
2022/11/11 14:44:33;;;;;;;4.23;1.40;;;;;;;;;;5082777;28;20232;-75
2022/11/11 14:47:26;;;;;;;4.43;1.20;;;;;;;;;;5078566;28;20248;-74
2022/11/11 14:49:58;;;;;;;3.23;1.37;;;;;;;;;;5069138;28;20202;-75
2022/11/11 14:52:30;;;;;;;2.87;1.20;;;;;;;;;;5086570;28;20222;-74
2022/11/11 14:55:11;;;;;;;6.43;1.30;;;;;;;;;;5079997;28;20201;-74
2022/11/11 14:57:40;;;;;;;1.77;1.20;;;;;;;;;;5073889;28;20226;-74
2022/11/11 15:00:13;;;;;;;4.17;1.60;;;;;;;;;;5084014;28;20255;-75
2022/11/11 15:02:45;;;;;;;2.07;1.47;;;;;;;;;;5074363;28;20261;-74
2022/11/11 15:05:18;;;;;;;2.40;1.43;;;;;;;;;;5075172;28;20887;-74
2022/11/11 15:07:57;;;;;;;3.00;1.43;;;;;;;;;;5082979;28;20744;-74
2022/11/11 15:10:40;;;;;;;2.07;1.13;;;;;;;;;;5079144;28;20654;-74
2022/11/11 15:13:27;;;;;;;2.07;1.30;;;;;;;;;;5072546;28;20746;-74
2022/11/11 15:16:01;;;;;;;2.47;1.50;;;;;;;;;;5074013;28;20667;-74
2022/11/11 15:18:40;;;;;;;5.03;1.30;;;;;;;;;;5075298;28;20221;-74
2022/11/11 15:21:13;;;;;;;3.07;1.40;;;;;;;;;;5076229;28;20202;-74
2022/11/11 15:23:46;;;;;;;4.03;1.50;;;;;;;;;;5077711;28;20202;-74
2022/11/11 15:26:18;;;;;;;1.27;1.03;;;;;;;;;;5081430;28;20322;-75
2022/11/11 15:29:01;;;;;;;2.70;1.30;;;;;;;;;;5089607;28;20234;-77
2022/11/11 15:31:33;;;;;;;1.70;1.20;;;;;;;;;;5077693;28;20246;-74
2022/11/11 15:34:07;;;;;;;2.37;1.23;;;;;;;;;;5083813;28;20203;-76
2022/11/11 15:36:44;;;;;;;2.73;1.40;;;;;;;;;;5079814;28;20647;-74
2022/11/11 15:39:14;;;;;;;2.47;1.40;;;;;;;;;;5091388;28;20278;-74
2022/11/11 15:41:43;;;;;;;2.60;1.40;;;;;;;;;;5095203;28;20642;-74
2022/11/11 15:44:18;;;;;;;3.53;2.00;;;;;;;;;;5087795;28;20663;-75
2022/11/11 15:46:47;;;;;;;3.53;2.47;;;;;;;;;;5082369;28;20245;-75
2022/11/11 15:49:37;;;;;;;3.40;2.10;;;;;;;;;;5088025;28;20189;-74
2022/11/11 15:52:24;;;;;;;3.67;1.90;;;;;;;;;;5086687;28;20221;-74
2022/11/11 15:54:53;;;;;;;2.90;2.07;;;;;;;;;;5080392;28;20285;-76
2022/11/11 15:57:26;;;;;;;3.67;1.83;;;;;;;;;;5074021;28;20210;-74
2022/11/11 15:59:55;;;;;;;4.90;2.20;;;;;;;;;;5079634;28;20266;-75
2022/11/11 16:02:25;;;;;;;4.47;2.10;;;;;;;;;;5074113;28;20218;-74
2022/11/11 16:04:57;;;;;;;3.67;2.93;;;;;;;;;;5072758;28;20209;-74
2022/11/11 16:07:31;;;;;;;15.67;6.10;;;;;;;;;;5074357;28;20253;-74
2022/11/11 16:10:06;;;;;;;10.87;5.17;;;;;;;;;;5073303;28;20194;-74
2022/11/11 16:12:38;;;;;;;8.03;3.93;;;;;;;;;;5073352;28;20236;-73
2022/11/11 16:15:09;;;;;;;7.00;3.60;;;;;;;;;;5071820;28;20214;-74
2022/11/11 16:17:39;;;;;;;5.53;3.00;;;;;;;;;;5077480;28;20729;-74
2022/11/11 16:20:13;;;;;;;4.90;3.10;;;;;;;;;;5085427;28;20206;-74